Time;durP1;ratioP1;P1;durP2;ratioP2;P2;SDS_P1;SDS_P2;PMS_P1;PMS_P2;Temp;Humidity;BMP_temperature;BMP_pressure;BME280_temperature;BME280_humidity;BME280_pressure;Samples;Min_cycle;Max_cycle;Signal;HPM_P1;HPM_P2
2022/03/04 00:00:56;;;;;;;15.07;8.97;;;;;;;0.06;77.42;101714.50;2107121;28;20389;-59
2022/03/04 00:01:56;;;;;;;14.33;8.83;;;;;;;0.04;77.04;101720.47;2106964;28;20020;-59
2022/03/04 00:02:57;;;;;;;15.77;10.38;;;;;;;0.03;76.36;101719.56;2107136;28;20028;-59
2022/03/04 00:03:58;;;;;;;13.47;8.87;;;;;;;-0.02;77.28;101711.81;2107017;28;20024;-59
2022/03/04 00:04:58;;;;;;;14.50;9.00;;;;;;;-0.06;77.75;101717.75;2106965;28;20020;-59
2022/03/04 00:05:58;;;;;;;16.40;8.57;;;;;;;-0.07;76.75;101715.16;2106917;28;20055;-59
2022/03/04 00:06:59;;;;;;;16.67;9.30;;;;;;;-0.11;77.66;101719.38;2106966;28;20081;-58
2022/03/04 00:07:59;;;;;;;14.63;9.50;;;;;;;-0.17;78.31;101719.28;2106940;28;20024;-59
2022/03/04 00:08:59;;;;;;;18.50;10.60;;;;;;;-0.24;78.44;101718.28;2106866;28;20481;-59
2022/03/04 00:10:00;;;;;;;14.40;8.80;;;;;;;-0.30;79.10;101719.06;2106926;28;20313;-58
2022/03/04 00:11:02;;;;;;;14.27;9.07;;;;;;;-0.34;79.33;101719.84;2106902;28;20031;-60
2022/03/04 00:12:03;;;;;;;14.52;8.75;;;;;;;-0.35;79.46;101720.69;2106925;28;20115;-58
2022/03/04 00:13:04;;;;;;;13.38;9.38;;;;;;;-0.35;79.78;101720.69;2114616;28;20024;-59
2022/03/04 00:14:05;;;;;;;17.25;9.38;;;;;;;-0.38;79.84;101723.19;2114687;28;20366;-59
2022/03/04 00:15:05;;;;;;;14.53;9.00;;;;;;;-0.39;80.16;101724.03;2106885;28;20107;-59
2022/03/04 00:16:07;;;;;;;14.68;9.88;;;;;;;-0.40;80.36;101725.72;2106879;28;20066;-59
2022/03/04 00:17:07;;;;;;;16.73;10.23;;;;;;;-0.43;80.70;101724.81;2106873;28;20035;-58
2022/03/04 00:18:07;;;;;;;12.90;8.90;;;;;;;-0.43;80.62;101732.50;2106936;28;20028;-60
2022/03/04 00:19:09;;;;;;;18.60;10.67;;;;;;;-0.45;80.63;101729.91;2106845;28;20052;-59
2022/03/04 00:20:10;;;;;;;12.70;8.18;;;;;;;-0.46;80.77;101727.31;2097871;28;20031;-60
2022/03/04 00:21:11;;;;;;;12.55;9.40;;;;;;;-0.45;80.48;101735.03;2097961;28;20035;-59
2022/03/04 00:22:11;;;;;;;14.63;8.63;;;;;;;-0.41;80.14;101730.84;2106822;28;20032;-59
2022/03/04 00:23:11;;;;;;;15.00;9.57;;;;;;;-0.41;80.37;101731.69;2106842;28;20027;-59
2022/03/04 00:24:11;;;;;;;14.97;8.53;;;;;;;-0.41;80.12;101736.00;2106858;28;20021;-60
2022/03/04 00:25:12;;;;;;;13.80;9.40;;;;;;;-0.41;80.56;101736.81;2106875;28;20495;-60
2022/03/04 00:26:12;;;;;;;15.07;8.40;;;;;;;-0.42;80.23;101731.66;2097878;28;20082;-59
2022/03/04 00:27:12;;;;;;;15.87;10.00;;;;;;;-0.43;80.29;101741.09;2089546;28;20025;-59
2022/03/04 00:28:13;;;;;;;13.90;8.37;;;;;;;-0.46;80.34;101732.44;2097685;28;20025;-58
2022/03/04 00:29:14;;;;;;;17.43;10.40;;;;;;;-0.49;80.83;101740.09;2106799;28;20028;-59
2022/03/04 00:30:14;;;;;;;13.30;8.82;;;;;;;-0.53;80.38;101732.38;2106830;28;20490;-59
2022/03/04 00:31:14;;;;;;;15.27;10.77;;;;;;;-0.58;80.79;101744.22;2106804;28;20101;-59
2022/03/04 00:32:15;;;;;;;12.37;9.47;;;;;;;-0.66;81.07;101735.50;2106821;28;20153;-59
2022/03/04 00:33:15;;;;;;;13.97;9.53;;;;;;;-0.70;81.52;101738.84;2106827;28;20089;-59
2022/03/04 00:34:15;;;;;;;16.43;9.47;;;;;;;-0.74;81.84;101737.94;2106778;28;20028;-59
2022/03/04 00:35:15;;;;;;;16.00;10.63;;;;;;;-0.74;81.83;101731.94;2106727;28;20031;-59
2022/03/04 00:36:16;;;;;;;16.10;9.30;;;;;;;-0.76;81.91;101734.47;2106758;28;20051;-59
2022/03/04 00:37:17;;;;;;;13.48;9.63;;;;;;;-0.76;82.13;101733.63;2106818;28;20099;-58
2022/03/04 00:38:17;;;;;;;14.17;8.63;;;;;;;-0.78;82.05;101742.13;2106707;28;20015;-59
2022/03/04 00:39:17;;;;;;;16.70;9.27;;;;;;;-0.83;82.28;101738.63;2106756;28;20016;-58
2022/03/04 00:40:18;;;;;;;15.70;9.93;;;;;;;-0.91;82.75;101745.31;2106717;28;20023;-58
2022/03/04 00:41:19;;;;;;;15.60;10.00;;;;;;;-0.94;82.88;101746.13;2106777;28;20019;-59
2022/03/04 00:42:20;;;;;;;;;;;;;;;-0.95;82.30;101738.41;2107161;28;20059;-59
2022/03/04 00:43:20;;;;;;;15.90;8.32;;;;;;;-1.00;82.61;101740.00;2097532;28;19919;-59
2022/03/04 00:44:20;;;;;;;13.33;9.17;;;;;;;-1.06;82.47;101746.72;2097751;28;20032;-60
2022/03/04 00:45:20;;;;;;;13.80;10.17;;;;;;;-1.11;83.05;101748.34;2106738;28;20031;-59
2022/03/04 00:46:21;;;;;;;16.70;9.90;;;;;;;-1.13;82.88;101754.25;2097749;28;20486;-59
2022/03/04 00:47:21;;;;;;;14.23;9.77;;;;;;;-1.17;83.39;101758.44;2097514;28;20161;-59
2022/03/04 00:48:22;;;;;;;16.27;10.20;;;;;;;-1.20;83.15;101750.72;2106640;28;20450;-59
2022/03/04 00:49:22;;;;;;;18.53;10.43;;;;;;;-1.23;83.00;101758.31;2106819;28;20099;-59
2022/03/04 00:50:22;;;;;;;16.13;9.03;;;;;;;-1.23;83.75;101755.75;2106725;28;20016;-59
2022/03/04 00:51:22;;;;;;;14.53;8.20;;;;;;;-1.22;83.97;101749.78;2106736;28;20020;-59
2022/03/04 00:52:23;;;;;;;15.57;9.10;;;;;;;-1.21;84.36;101747.28;2106660;28;20102;-60
2022/03/04 00:53:23;;;;;;;15.67;9.37;;;;;;;-1.25;83.59;101755.72;2106701;28;20483;-60
2022/03/04 00:54:23;;;;;;;15.27;11.07;;;;;;;-1.28;84.03;101744.53;2106766;28;20511;-58
2022/03/04 00:55:24;;;;;;;17.70;10.27;;;;;;;-1.31;83.94;101743.66;2106638;28;20101;-59
2022/03/04 00:56:24;;;;;;;17.60;9.75;;;;;;;-1.35;84.11;101748.66;2106687;28;20020;-59
2022/03/04 00:57:24;;;;;;;14.47;8.93;;;;;;;-1.36;84.65;101752.06;2106712;28;20458;-59
2022/03/04 00:58:25;;;;;;;13.63;9.07;;;;;;;-1.38;84.95;101754.59;2106600;28;20015;-59
2022/03/04 00:59:25;;;;;;;17.92;10.75;;;;;;;-1.40;84.99;101752.81;2106597;28;20016;-60
2022/03/04 01:00:25;;;;;;;13.90;9.50;;;;;;;-1.43;85.41;101751.06;2106609;28;20352;-59
2022/03/04 01:01:26;;;;;;;17.10;10.27;;;;;;;-1.46;85.68;101751.00;2106681;28;20024;-59
2022/03/04 01:02:26;;;;;;;15.57;10.73;;;;;;;-1.50;86.07;101749.19;2106673;28;20023;-59
2022/03/04 01:03:26;;;;;;;15.57;9.83;;;;;;;-1.53;85.97;101754.25;2114556;28;20020;-59
2022/03/04 01:04:27;;;;;;;16.07;10.20;;;;;;;-1.51;86.31;101752.59;2114507;28;20039;-60
2022/03/04 01:05:27;;;;;;;16.20;9.77;;;;;;;-1.50;86.17;101756.88;2106819;28;20111;-59
2022/03/04 01:06:27;;;;;;;19.03;9.90;;;;;;;-1.51;86.36;101760.28;2106607;28;20419;-60
2022/03/04 01:07:28;;;;;;;14.93;9.47;;;;;;;-1.52;86.17;101758.53;2106655;28;20024;-60
2022/03/04 01:08:28;;;;;;;15.87;10.27;;;;;;;-1.54;85.72;101753.38;2106545;28;20085;-60
2022/03/04 01:09:29;;;;;;;16.33;10.98;;;;;;;-1.57;85.73;101754.16;2106634;28;20024;-59
2022/03/04 01:10:29;;;;;;;15.57;10.52;;;;;;;-1.60;85.49;101759.25;2106714;28;20028;-59
2022/03/04 01:11:30;;;;;;;16.70;10.57;;;;;;;-1.63;85.70;101758.28;2106555;28;20031;-60
2022/03/04 01:12:31;;;;;;;;;;;;;;;-1.64;85.79;101756.56;2106974;28;20481;-59
2022/03/04 01:13:31;;;;;;;14.60;9.13;;;;;;;-1.70;85.65;101757.28;2106585;28;19961;-59
2022/03/04 01:14:31;;;;;;;17.43;9.97;;;;;;;-1.74;85.94;101758.91;2114381;28;20049;-59
2022/03/04 01:15:31;;;;;;;12.37;7.87;;;;;;;-1.79;85.81;101757.09;2114442;28;20435;-58
2022/03/04 01:16:32;;;;;;;16.83;10.33;;;;;;;-1.83;86.51;101759.56;2106663;28;20031;-59
2022/03/04 01:17:32;;;;;;;16.07;10.23;;;;;;;-1.88;86.71;101757.72;2106636;28;20020;-60
2022/03/04 01:18:32;;;;;;;14.00;9.43;;;;;;;-1.92;86.63;101756.75;2106628;28;20087;-60
2022/03/04 01:19:33;;;;;;;18.93;11.00;;;;;;;-1.95;87.22;101756.72;2106588;28;20028;-59
2022/03/04 01:20:33;;;;;;;16.23;10.33;;;;;;;-1.98;87.39;101759.19;2106604;28;20126;-59
2022/03/04 01:21:34;;;;;;;16.98;9.98;;;;;;;-2.02;87.24;101755.69;2106581;28;20469;-60
2022/03/04 01:22:34;;;;;;;18.45;10.32;;;;;;;-2.02;87.29;101749.72;2106581;28;20049;-60
2022/03/04 01:23:35;;;;;;;15.87;10.80;;;;;;;-2.02;87.49;101758.22;2106600;28;20020;-60
2022/03/04 01:24:35;;;;;;;17.65;10.15;;;;;;;-2.05;87.53;101750.50;2106501;28;20487;-59
2022/03/04 01:25:35;;;;;;;16.87;10.87;;;;;;;-2.07;87.76;101747.91;2106666;28;20020;-59
2022/03/04 01:26:36;;;;;;;17.60;10.50;;;;;;;-2.10;88.18;101749.50;2097638;28;20094;-60
2022/03/04 01:27:36;;;;;;;18.80;11.70;;;;;;;-2.13;87.73;101755.41;2097722;28;20029;-59
2022/03/04 01:28:36;;;;;;;20.17;10.97;;;;;;;-2.14;88.40;101751.13;2106532;28;20035;-60
2022/03/04 01:29:37;;;;;;;17.73;10.07;;;;;;;-2.16;88.45;101746.81;2106565;28;20036;-59
2022/03/04 01:30:37;;;;;;;18.10;9.80;;;;;;;-2.17;88.92;101745.06;2106581;28;20032;-60
2022/03/04 01:31:37;;;;;;;18.87;11.43;;;;;;;-2.20;88.71;101745.84;2106536;28;20027;-59
2022/03/04 01:32:38;;;;;;;16.00;10.23;;;;;;;-2.23;89.03;101748.31;2106530;28;20103;-59
2022/03/04 01:33:39;;;;;;;16.40;10.87;;;;;;;-2.26;88.96;101745.72;2106607;28;20110;-59
2022/03/04 01:34:39;;;;;;;;;;;;;;;-2.24;88.69;101750.03;2106972;28;20089;-59
2022/03/04 01:35:41;;;;;;;18.08;10.18;;;;;;;-2.24;89.27;101749.16;2106455;28;19912;-59
2022/03/04 01:36:41;;;;;;;17.75;9.68;;;;;;;-2.27;90.11;101749.06;2106532;28;20031;-58
2022/03/04 01:37:42;;;;;;;12.70;8.53;;;;;;;-2.31;89.79;101747.28;2106476;28;20445;-59
2022/03/04 01:38:42;;;;;;;14.97;10.23;;;;;;;-2.36;89.97;101745.47;2106546;28;20031;-60
2022/03/04 01:39:43;;;;;;;19.02;9.80;;;;;;;-2.39;89.85;101745.38;2106510;28;20020;-60
2022/03/04 01:40:43;;;;;;;16.37;9.80;;;;;;;-2.39;90.25;101739.41;2106529;28;20051;-59
2022/03/04 01:41:43;;;;;;;15.40;9.73;;;;;;;-2.41;90.63;101741.94;2106527;28;20074;-59
2022/03/04 01:42:44;;;;;;;16.33;10.70;;;;;;;-2.43;90.90;101737.59;2106514;28;20339;-60
2022/03/04 01:43:44;;;;;;;17.17;8.47;;;;;;;-2.44;90.30;101738.44;2106499;28;20365;-59
2022/03/04 01:44:45;;;;;;;17.10;10.10;;;;;;;-2.44;90.75;101736.72;2106497;28;20032;-59
2022/03/04 01:45:46;;;;;;;18.35;9.75;;;;;;;-2.43;90.59;101737.59;2097403;28;20503;-59
2022/03/04 01:46:47;;;;;;;15.27;10.00;;;;;;;-2.43;91.00;101738.44;2097569;28;20029;-59
2022/03/04 01:47:47;;;;;;;16.23;9.82;;;;;;;-2.47;91.27;101736.66;2106257;28;20048;-60
2022/03/04 01:48:47;;;;;;;14.20;10.63;;;;;;;-2.50;91.22;101731.47;2106418;28;20020;-60
2022/03/04 01:49:47;;;;;;;17.93;11.40;;;;;;;-2.50;91.73;101736.59;2097456;28;20021;-59
2022/03/04 01:50:49;;;;;;;15.50;10.07;;;;;;;-2.51;91.43;101732.28;2097576;28;20028;-61
2022/03/04 01:51:49;;;;;;;15.32;10.18;;;;;;;-2.54;91.28;101734.78;2106433;28;20358;-59
2022/03/04 01:52:50;;;;;;;16.40;10.37;;;;;;;-2.57;91.52;101738.09;2106478;28;20085;-59
2022/03/04 01:53:50;;;;;;;16.37;11.33;;;;;;;-2.59;91.71;101738.06;2097541;28;20423;-59
2022/03/04 01:54:51;;;;;;;17.07;10.63;;;;;;;-2.59;92.04;101732.09;2097570;28;20496;-59
2022/03/04 01:55:51;;;;;;;18.67;10.70;;;;;;;-2.58;92.49;101733.81;2107330;28;20699;-60
2022/03/04 01:56:52;;;;;;;16.90;11.40;;;;;;;-2.57;92.20;101729.59;2108013;28;20453;-59
2022/03/04 01:57:53;;;;;;;18.60;11.60;;;;;;;-2.56;92.42;101734.75;2107997;28;20027;-60
2022/03/04 01:58:53;;;;;;;19.20;10.80;;;;;;;-2.59;92.65;101727.81;2108002;28;20113;-60
2022/03/04 01:59:53;;;;;;;17.03;10.23;;;;;;;-2.61;93.10;101732.03;2107948;28;20024;-59
2022/03/04 02:00:54;;;;;;;15.77;9.33;;;;;;;-2.61;92.87;101737.16;2107977;28;20056;-59
2022/03/04 02:01:54;;;;;;;15.00;9.73;;;;;;;-2.62;92.89;101738.00;2115678;28;20422;-59
2022/03/04 02:02:57;;;;;;;18.73;11.07;;;;;;;-2.64;93.38;101744.75;2115711;28;20027;-59
2022/03/04 02:03:57;;;;;;;17.35;10.70;;;;;;;-2.70;92.36;101744.59;2107888;28;20505;-60
2022/03/04 02:04:59;;;;;;;16.67;10.37;;;;;;;-2.72;93.18;101742.00;2107899;28;20071;-59
2022/03/04 02:05:59;;;;;;;18.05;10.68;;;;;;;-2.75;93.26;101748.69;2107875;28;20055;-59
2022/03/04 02:06:59;;;;;;;21.23;11.93;;;;;;;-2.76;92.76;101746.97;2107874;28;20066;-59
2022/03/04 02:07:59;;;;;;;18.73;10.10;;;;;;;-2.80;93.50;101750.25;2107845;28;20127;-59
2022/03/04 02:09:00;;;;;;;14.40;10.60;;;;;;;-2.81;93.58;101748.53;2107901;28;20051;-58
2022/03/04 02:10:00;;;;;;;19.33;11.33;;;;;;;-2.83;93.76;101751.03;2107916;28;20024;-59
2022/03/04 02:11:00;;;;;;;17.10;10.87;;;;;;;-2.83;94.51;101752.72;2107921;28;20038;-58
2022/03/04 02:12:01;;;;;;;19.53;11.27;;;;;;;-2.82;94.40;101750.22;2107766;28;20038;-61
2022/03/04 02:13:01;;;;;;;18.37;11.17;;;;;;;-2.81;94.48;101746.81;2107887;28;20021;-59
2022/03/04 02:14:01;;;;;;;16.13;10.57;;;;;;;-2.80;94.85;101750.25;2107820;28;20103;-59
2022/03/04 02:15:04;;;;;;;17.27;10.70;;;;;;;-2.82;94.81;101750.22;2107823;28;20051;-58
2022/03/04 02:16:17;;;;;;;14.05;9.68;;;;;;;-2.83;95.51;101750.16;2107760;28;20016;-59
2022/03/04 02:17:18;;;;;;;15.70;10.63;;;;;;;-2.81;95.51;101748.53;2107693;28;20069;-59
2022/03/04 02:18:18;;;;;;;17.20;11.43;;;;;;;-2.79;96.16;101751.97;2107746;28;20009;-58
2022/03/04 02:19:20;;;;;;;18.20;10.90;;;;;;;-2.77;95.23;101747.78;2107797;28;20027;-58
2022/03/04 02:20:22;;;;;;;18.63;10.93;;;;;;;-2.74;95.57;101742.78;2107778;28;20031;-58
2022/03/04 02:21:23;;;;;;;17.77;10.55;;;;;;;-2.70;96.35;101736.94;2107744;28;20031;-59
2022/03/04 02:22:24;;;;;;;17.15;10.32;;;;;;;-2.67;95.84;101742.09;2107744;28;20020;-59
2022/03/04 02:23:24;;;;;;;20.38;12.07;;;;;;;-2.67;95.32;101751.47;2098685;28;20020;-58
2022/03/04 02:24:25;;;;;;;15.63;9.63;;;;;;;-2.73;94.86;101747.91;2098612;28;20024;-58
2022/03/04 02:25:26;;;;;;;20.75;11.85;;;;;;;-2.74;94.63;101742.78;2098867;28;20032;-58
2022/03/04 02:26:26;;;;;;;18.17;10.73;;;;;;;-2.77;94.19;101745.25;2107728;28;20457;-58
2022/03/04 02:27:26;;;;;;;17.63;10.70;;;;;;;-2.76;94.61;101739.31;2098730;28;20035;-58
2022/03/04 02:28:27;;;;;;;19.70;11.43;;;;;;;-2.78;94.84;101743.47;2098693;28;20496;-58
2022/03/04 02:29:30;;;;;;;18.50;12.00;;;;;;;-2.81;94.67;101740.88;2107657;28;20392;-58
2022/03/04 02:30:30;;;;;;;20.92;12.48;;;;;;;-2.80;94.86;101742.59;2107688;28;20020;-59
2022/03/04 02:31:30;;;;;;;20.40;11.70;;;;;;;-2.81;95.11;101738.31;2107645;28;20476;-59
2022/03/04 02:32:31;;;;;;;17.40;10.87;;;;;;;-2.82;95.79;101744.22;2107699;28;20469;-59
2022/03/04 02:33:32;;;;;;;17.47;11.53;;;;;;;-2.85;95.39;101734.78;2107679;28;20039;-59
2022/03/04 02:34:32;;;;;;;18.27;10.73;;;;;;;-2.88;95.85;101739.81;2107673;28;20027;-58
2022/03/04 02:35:34;;;;;;;17.50;10.83;;;;;;;-2.90;96.12;101739.78;2107589;28;20016;-59
2022/03/04 02:36:35;;;;;;;15.60;11.07;;;;;;;-2.93;95.74;101732.03;2107481;28;20020;-59
2022/03/04 02:37:36;;;;;;;17.83;11.57;;;;;;;-2.97;96.51;101730.22;2107538;28;20380;-58
2022/03/04 02:38:36;;;;;;;17.27;10.50;;;;;;;-2.97;96.81;101730.22;2107505;28;20020;-59
2022/03/04 02:39:36;;;;;;;17.13;10.93;;;;;;;-2.95;96.56;101732.81;2107564;28;20028;-58
2022/03/04 02:40:37;;;;;;;17.93;11.30;;;;;;;-2.95;97.05;101723.44;2107630;28;20389;-59
2022/03/04 02:41:38;;;;;;;21.08;11.75;;;;;;;-2.94;97.37;101727.75;2107573;28;20032;-58
2022/03/04 02:42:38;;;;;;;19.88;11.43;;;;;;;-2.95;96.92;101720.91;2107604;28;20024;-59
2022/03/04 02:43:38;;;;;;;17.97;11.63;;;;;;;-2.98;97.22;101718.25;2107591;28;20538;-59
2022/03/04 02:44:38;;;;;;;21.93;11.97;;;;;;;-2.98;97.70;101718.25;2098559;28;20024;-60
2022/03/04 02:45:39;;;;;;;16.23;10.43;;;;;;;-2.96;97.41;101729.41;2098586;28;20142;-59
2022/03/04 02:46:40;;;;;;;17.67;10.70;;;;;;;-2.94;97.73;101720.09;2115326;28;20553;-59
2022/03/04 02:47:40;;;;;;;15.27;10.40;;;;;;;-2.90;98.15;101724.47;2115233;28;20480;-58
2022/03/04 02:48:40;;;;;;;19.23;10.03;;;;;;;-2.86;98.18;101722.84;2107430;28;20024;-58
2022/03/04 02:49:40;;;;;;;16.67;10.43;;;;;;;-2.82;98.42;101719.56;2107570;28;20397;-57
2022/03/04 02:50:41;;;;;;;18.03;10.60;;;;;;;-2.77;98.21;101722.25;2107613;28;20026;-58
2022/03/04 02:51:41;;;;;;;17.43;11.37;;;;;;;-2.76;98.45;101719.72;2107529;28;20062;-59
2022/03/04 02:52:42;;;;;;;20.03;12.13;;;;;;;-2.76;98.10;101722.28;2107606;28;20031;-59
2022/03/04 02:53:42;;;;;;;16.95;11.18;;;;;;;-2.79;97.75;101717.09;2107554;28;20031;-59
2022/03/04 02:54:43;;;;;;;20.03;11.50;;;;;;;-2.81;97.33;101720.44;2107560;28;20446;-59
2022/03/04 02:55:43;;;;;;;21.17;12.10;;;;;;;-2.85;97.11;101725.44;2107551;28;20027;-59
2022/03/04 02:56:43;;;;;;;17.50;10.60;;;;;;;-2.84;97.75;101726.31;2107528;28;20388;-59
2022/03/04 02:57:46;;;;;;;16.70;10.27;;;;;;;-2.83;96.88;101722.06;2107558;28;20095;-60
2022/03/04 02:58:46;;;;;;;18.67;10.60;;;;;;;-2.83;96.97;101716.94;2107586;28;20023;-59
2022/03/04 02:59:46;;;;;;;19.97;11.50;;;;;;;-2.81;97.67;101715.31;2107452;28;20469;-58
2022/03/04 03:00:47;;;;;;;23.23;12.77;;;;;;;-2.81;97.22;101715.31;2107395;28;20062;-58
2022/03/04 03:01:47;;;;;;;17.77;11.33;;;;;;;-2.80;97.18;101714.50;2106762;28;20055;-59
2022/03/04 03:02:47;;;;;;;14.63;10.03;;;;;;;-2.77;96.97;101717.97;2106927;28;20020;-59
2022/03/04 03:03:47;;;;;;;14.53;9.33;;;;;;;-2.74;97.53;101712.97;2107430;28;20048;-59
2022/03/04 03:04:47;;;;;;;17.00;10.53;;;;;;;-2.70;97.11;101719.03;2107449;28;20481;-59
2022/03/04 03:05:48;;;;;;;16.07;10.47;;;;;;;-2.65;96.61;101719.13;2106700;28;20563;-58
2022/03/04 03:06:48;;;;;;;17.50;9.73;;;;;;;-2.64;96.50;101724.28;2106866;28;20020;-59
2022/03/04 03:07:48;;;;;;;16.30;9.77;;;;;;;-2.61;96.19;101715.84;2107385;28;20038;-59
2022/03/04 03:08:49;;;;;;;18.20;10.17;;;;;;;-2.61;95.40;101724.38;2107336;28;20032;-59
2022/03/04 03:09:49;;;;;;;17.98;10.40;;;;;;;-2.63;94.83;101720.91;2106655;28;20058;-59
2022/03/04 03:10:49;;;;;;;16.03;10.43;;;;;;;-2.65;94.59;101720.00;2106814;28;20443;-59
2022/03/04 03:11:49;;;;;;;18.30;11.80;;;;;;;-2.67;95.53;101716.53;2107322;28;20050;-59
2022/03/04 03:12:50;;;;;;;18.80;11.63;;;;;;;-2.67;95.01;101728.47;2107284;28;20028;-59
2022/03/04 03:13:50;;;;;;;17.50;11.23;;;;;;;-2.73;95.07;101719.78;2107342;28;20028;-59
2022/03/04 03:14:51;;;;;;;16.80;10.93;;;;;;;-2.73;94.64;101724.06;2107338;28;20023;-58
2022/03/04 03:15:51;;;;;;;15.60;10.77;;;;;;;-2.75;95.31;101720.56;2107318;28;20024;-59
2022/03/04 03:16:51;;;;;;;19.10;11.07;;;;;;;-2.76;95.45;101718.84;2107313;28;20034;-59
2022/03/04 03:17:52;;;;;;;24.90;11.97;;;;;;;-2.79;95.36;101724.75;2107332;28;20023;-58
2022/03/04 03:18:52;;;;;;;18.23;10.47;;;;;;;-2.81;95.04;101720.44;2107337;28;20062;-58
2022/03/04 03:19:52;;;;;;;16.17;11.23;;;;;;;-2.82;95.00;101718.69;2107334;28;20080;-58
2022/03/04 03:20:53;;;;;;;16.83;10.17;;;;;;;-2.80;94.99;101714.50;2107323;28;20024;-59
2022/03/04 03:21:53;;;;;;;17.63;10.70;;;;;;;-2.76;95.10;101711.19;2107239;28;20020;-58
2022/03/04 03:22:53;;;;;;;18.80;11.57;;;;;;;-2.74;95.33;101712.13;2107324;28;20035;-58
2022/03/04 03:23:53;;;;;;;17.97;11.13;;;;;;;-2.76;95.72;101723.97;2107264;28;20024;-58
2022/03/04 03:24:54;;;;;;;14.43;9.67;;;;;;;-2.80;95.54;101711.94;2107208;28;20028;-58
2022/03/04 03:25:54;;;;;;;15.75;10.93;;;;;;;-2.80;95.66;101717.91;2107246;28;20059;-59
2022/03/04 03:26:54;;;;;;;15.30;11.07;;;;;;;-2.81;95.88;101715.31;2107232;28;20020;-58
2022/03/04 03:27:55;;;;;;;21.60;12.47;;;;;;;-2.82;96.15;101723.78;2107203;28;20024;-60
2022/03/04 03:28:55;;;;;;;18.93;10.53;;;;;;;-2.87;96.28;101716.03;2107230;28;20030;-58
2022/03/04 03:29:55;;;;;;;14.27;7.57;;;;;;;-2.86;96.21;101716.06;2107300;28;20067;-58
2022/03/04 03:30:56;;;;;;;17.40;10.97;;;;;;;-2.82;96.50;101718.69;2107279;28;20038;-58
2022/03/04 03:31:56;;;;;;;15.00;9.77;;;;;;;-2.82;96.17;101714.44;2107225;28;20032;-58
2022/03/04 03:32:57;;;;;;;17.87;11.60;;;;;;;-2.79;96.66;101711.09;2106578;28;20199;-58
2022/03/04 03:33:57;;;;;;;15.85;11.27;;;;;;;-2.78;96.19;101716.25;2098173;28;20020;-59
2022/03/04 03:34:58;;;;;;;17.27;10.43;;;;;;;-2.78;96.07;101713.69;2106632;28;20080;-58
2022/03/04 03:35:58;;;;;;;17.40;11.27;;;;;;;-2.78;96.67;101720.50;2107184;28;20048;-59
2022/03/04 03:36:59;;;;;;;18.47;9.97;;;;;;;-2.75;96.53;101723.13;2107123;28;20024;-59
2022/03/04 03:37:59;;;;;;;15.43;10.60;;;;;;;-2.75;96.96;101726.56;2107288;28;20028;-58
2022/03/04 03:38:59;;;;;;;19.60;11.27;;;;;;;-2.73;96.28;101729.16;2107210;28;20039;-58
2022/03/04 03:39:59;;;;;;;17.23;10.50;;;;;;;-2.72;96.37;101728.34;2107162;28;20052;-59
2022/03/04 03:41:00;;;;;;;20.33;11.27;;;;;;;-2.71;96.90;101722.38;2107246;28;20028;-58
2022/03/04 03:42:00;;;;;;;18.27;11.40;;;;;;;-2.70;96.67;101733.50;2106452;28;20107;-59
2022/03/04 03:43:00;;;;;;;19.60;12.13;;;;;;;-2.68;96.86;101727.59;2106579;28;20035;-58
2022/03/04 03:44:01;;;;;;;21.03;12.43;;;;;;;-2.66;95.98;101731.06;2107152;28;20027;-58
2022/03/04 03:45:03;;;;;;;14.95;9.57;;;;;;;-2.68;95.87;101729.28;2107141;28;20037;-58
2022/03/04 03:46:04;;;;;;;18.10;11.38;;;;;;;-2.66;95.71;101732.75;2107120;28;20023;-59
2022/03/04 03:47:04;;;;;;;19.10;11.13;;;;;;;-2.67;95.07;101726.75;2107211;28;20059;-58
2022/03/04 03:48:05;;;;;;;20.73;10.93;;;;;;;-2.68;94.87;101732.69;2106886;28;20549;-59
2022/03/04 03:49:05;;;;;;;16.33;10.37;;;;;;;-2.72;94.81;101730.88;2107040;28;20028;-57
2022/03/04 03:50:09;;;;;;;17.83;10.50;;;;;;;-2.76;95.11;101729.06;2107073;28;20020;-58
2022/03/04 03:51:09;;;;;;;17.30;10.88;;;;;;;-2.76;95.11;101734.19;2107018;28;20104;-57
2022/03/04 03:52:10;;;;;;;18.52;11.77;;;;;;;-2.78;95.00;101725.59;2107082;28;20047;-57
2022/03/04 03:53:11;;;;;;;16.30;9.80;;;;;;;-2.80;94.85;101729.81;2107048;28;20481;-59
2022/03/04 03:54:11;;;;;;;20.00;12.32;;;;;;;-2.84;94.77;101728.88;2107014;28;20031;-58
2022/03/04 03:55:11;;;;;;;19.50;11.30;;;;;;;-2.82;95.61;101731.44;2107033;28;20482;-58
2022/03/04 03:56:12;;;;;;;17.70;11.17;;;;;;;-2.83;95.50;101729.72;2106991;28;20020;-59
2022/03/04 03:57:12;;;;;;;18.20;12.10;;;;;;;-2.88;95.51;101730.47;2106959;28;20278;-58
2022/03/04 03:58:13;;;;;;;14.53;10.23;;;;;;;-2.90;95.54;101729.56;2107002;28;20031;-58
2022/03/04 03:59:13;;;;;;;18.10;12.10;;;;;;;-2.94;95.98;101727.75;2106277;28;20024;-58
2022/03/04 04:00:14;;;;;;;18.77;11.85;;;;;;;-2.94;96.17;101730.31;2106381;28;20099;-59
2022/03/04 04:01:15;;;;;;;18.10;11.68;;;;;;;-2.94;96.30;101730.31;2106872;28;20047;-59
2022/03/04 04:02:15;;;;;;;20.67;11.40;;;;;;;-2.97;95.91;101732.78;2106910;28;20106;-58
2022/03/04 04:03:15;;;;;;;21.03;12.80;;;;;;;-3.00;96.40;101735.25;2106945;28;20020;-59
2022/03/04 04:04:17;;;;;;;16.67;10.80;;;;;;;-3.03;96.64;101735.16;2106931;28;20026;-58
2022/03/04 04:05:17;;;;;;;20.08;11.48;;;;;;;-3.06;96.66;101741.03;2106935;28;20449;-58
2022/03/04 04:06:17;;;;;;;20.03;11.57;;;;;;;-3.09;97.03;101740.09;2106970;28;20020;-58
2022/03/04 04:07:18;;;;;;;20.90;12.63;;;;;;;-3.12;97.06;101738.28;2106919;28;20027;-58
2022/03/04 04:08:18;;;;;;;20.33;11.90;;;;;;;-3.16;96.99;101739.91;2106860;28;20076;-58
2022/03/04 04:09:18;;;;;;;20.57;12.63;;;;;;;-3.19;96.74;101737.25;2106911;28;20448;-58
2022/03/04 04:10:18;;;;;;;18.07;11.53;;;;;;;-3.22;97.15;101739.72;2106900;28;20055;-59
2022/03/04 04:11:19;;;;;;;20.67;12.47;;;;;;;-3.21;97.36;101748.25;2106908;28;20020;-58
2022/03/04 04:12:19;;;;;;;18.23;11.47;;;;;;;-3.22;97.54;101736.31;2106178;28;20028;-58
2022/03/04 04:13:19;;;;;;;19.90;12.00;;;;;;;-3.23;97.96;101745.66;2106223;28;20062;-57
2022/03/04 04:14:19;;;;;;;19.30;11.37;;;;;;;-3.24;97.84;101738.81;2106842;28;20032;-58
2022/03/04 04:15:20;;;;;;;22.53;12.17;;;;;;;-3.28;98.51;101750.63;2106870;28;20424;-58
2022/03/04 04:16:20;;;;;;;19.10;12.50;;;;;;;-3.32;97.87;101748.78;2106837;28;20024;-58
2022/03/04 04:17:20;;;;;;;22.17;12.77;;;;;;;-3.32;98.10;101747.94;2106847;28;20169;-58
2022/03/04 04:18:21;;;;;;;21.70;11.37;;;;;;;-3.32;98.51;101743.69;2106428;28;20024;-58
2022/03/04 04:19:22;;;;;;;17.37;10.20;;;;;;;-3.30;98.51;101746.28;2106955;28;20451;-58
2022/03/04 04:20:22;;;;;;;17.63;12.05;;;;;;;-3.31;98.54;101755.66;2106114;28;20070;-58
2022/03/04 04:21:26;;;;;;;18.10;10.77;;;;;;;-3.31;98.71;101752.22;2106217;28;20047;-58
2022/03/04 04:22:26;;;;;;;20.05;12.38;;;;;;;-3.32;98.96;101753.06;2106772;28;20016;-58
2022/03/04 04:23:26;;;;;;;22.40;12.73;;;;;;;-3.31;98.78;101749.66;2106792;28;20028;-58
2022/03/04 04:24:27;;;;;;;21.07;12.47;;;;;;;-3.29;98.98;101753.16;2106758;28;20350;-58
2022/03/04 04:25:27;;;;;;;20.53;12.27;;;;;;;-3.31;98.77;101755.66;2106735;28;20039;-58
2022/03/04 04:26:28;;;;;;;18.33;11.00;;;;;;;-3.33;98.54;101747.06;2106762;28;20433;-58
2022/03/04 04:27:28;;;;;;;19.63;12.82;;;;;;;-3.34;98.44;101753.00;2106708;28;20020;-59
2022/03/04 04:28:28;;;;;;;21.30;12.07;;;;;;;-3.37;98.40;101761.44;2106065;28;20016;-58
2022/03/04 04:29:29;;;;;;;24.20;13.20;;;;;;;-3.37;98.45;101755.47;2106172;28;20024;-58
2022/03/04 04:30:30;;;;;;;23.20;13.77;;;;;;;-3.37;98.66;101753.78;2106797;28;20422;-58
2022/03/04 04:31:32;;;;;;;14.77;10.40;;;;;;;-3.34;99.08;101749.56;2106699;28;20020;-58
2022/03/04 04:32:33;;;;;;;20.02;12.15;;;;;;;-3.35;98.91;101751.28;2106688;28;20016;-58
2022/03/04 04:33:33;;;;;;;19.27;12.53;;;;;;;-3.32;99.42;101747.94;2106727;28;20023;-58
2022/03/04 04:34:33;;;;;;;19.67;12.60;;;;;;;-3.29;99.37;101758.25;2106732;28;20051;-58
2022/03/04 04:35:33;;;;;;;19.10;11.60;;;;;;;-3.30;99.35;101757.38;2106668;28;20051;-57
2022/03/04 04:36:34;;;;;;;20.53;12.50;;;;;;;-3.29;99.44;101759.09;2106024;28;20554;-58